createdAt,value
2019-03-20T00:00:26.327Z,87.40
2019-03-20T00:03:31.451Z,87.70
2019-03-20T00:06:36.533Z,87.90
2019-03-20T00:09:41.605Z,88.00
2019-03-20T00:12:46.730Z,88.30
2019-03-20T00:15:51.855Z,88.30
2019-03-20T00:18:56.921Z,88.50
2019-03-20T00:22:01.993Z,88.50
2019-03-20T00:25:07.277Z,88.40
2019-03-20T00:28:12.427Z,88.30
2019-03-20T00:31:17.472Z,88.20
2019-03-20T00:34:22.595Z,88.10
2019-03-20T00:37:27.709Z,88.00
2019-03-20T00:40:32.837Z,88.00
2019-03-20T00:43:37.806Z,88.20
2019-03-20T00:46:43.014Z,88.30
2019-03-20T00:49:48.045Z,88.40
2019-03-20T00:52:53.131Z,88.50
2019-03-20T00:55:58.231Z,88.40
2019-03-20T00:59:03.364Z,88.60
2019-03-20T01:02:08.396Z,88.40
2019-03-20T01:05:14.032Z,88.20
2019-03-20T01:08:19.081Z,88.00
2019-03-20T01:11:24.080Z,88.10
2019-03-20T01:14:29.127Z,88.50
2019-03-20T01:17:34.339Z,88.70
2019-03-20T01:20:39.384Z,88.80
2019-03-20T01:23:44.504Z,89.00
2019-03-20T01:26:49.540Z,89.10
2019-03-20T01:29:54.535Z,89.20
2019-03-20T01:33:03.693Z,89.30
2019-03-20T01:36:08.822Z,89.50
2019-03-20T01:39:13.853Z,89.40
2019-03-20T01:42:18.838Z,89.30
2019-03-20T01:45:23.948Z,89.30
2019-03-20T01:48:28.937Z,89.30
2019-03-20T01:51:33.976Z,89.60
2019-03-20T01:54:38.947Z,89.80
2019-03-20T01:57:44.063Z,89.90
2019-03-20T02:00:49.203Z,89.90
2019-03-20T02:03:54.160Z,90.00
2019-03-20T02:06:59.284Z,90.00
2019-03-20T02:10:04.731Z,90.20
2019-03-20T02:13:09.874Z,90.40
2019-03-20T02:16:14.828Z,90.50
2019-03-20T02:19:19.875Z,90.50
2019-03-20T02:22:24.977Z,90.60
2019-03-20T02:25:32.308Z,90.60
2019-03-20T02:28:36.777Z,90.70
2019-03-20T02:31:41.894Z,90.60
2019-03-20T02:34:46.868Z,90.80
2019-03-20T02:37:52.012Z,90.70
2019-03-20T02:40:57.116Z,90.50
2019-03-20T02:44:02.153Z,90.40
2019-03-20T02:47:07.111Z,90.30
2019-03-20T02:50:12.442Z,90.20
2019-03-20T02:53:17.550Z,90.30
2019-03-20T02:56:22.533Z,90.10
2019-03-20T02:59:27.662Z,90.10
2019-03-20T03:02:33.280Z,90.00
2019-03-20T03:05:38.312Z,89.70
2019-03-20T03:08:43.435Z,89.50
2019-03-20T03:11:48.554Z,89.50
2019-03-20T03:14:53.608Z,89.50
2019-03-20T03:17:58.720Z,90.10
2019-03-20T03:21:03.897Z,89.50
2019-03-20T03:24:09.037Z,90.10
2019-03-20T03:27:14.077Z,89.50
2019-03-20T03:30:19.294Z,89.40
2019-03-20T03:33:24.425Z,89.40
2019-03-20T03:36:29.493Z,90.00
2019-03-20T03:39:34.549Z,89.40
2019-03-20T03:42:39.667Z,89.40
2019-03-20T03:45:44.683Z,89.20
2019-03-20T03:48:49.732Z,89.60
2019-03-20T03:51:54.820Z,89.60
2019-03-20T03:54:59.942Z,89.90
2019-03-20T03:58:05.270Z,90.10
2019-03-20T04:01:11.630Z,90.10
2019-03-20T04:04:16.596Z,90.20
2019-03-20T04:07:23.688Z,90.30
2019-03-20T04:10:28.470Z,90.30
2019-03-20T04:13:33.507Z,90.30
2019-03-20T04:16:38.612Z,90.30
2019-03-20T04:19:43.673Z,90.40
2019-03-20T04:22:48.801Z,90.50
2019-03-20T04:25:53.910Z,90.60
2019-03-20T04:29:00.645Z,90.80
2019-03-20T04:32:05.760Z,90.90
2019-03-20T04:35:10.911Z,91.00
2019-03-20T04:38:16.038Z,91.00
2019-03-20T04:41:21.171Z,91.00
2019-03-20T04:44:26.132Z,91.10
2019-03-20T04:47:31.115Z,91.10
2019-03-20T04:50:36.151Z,91.00
2019-03-20T04:53:41.285Z,91.00
2019-03-20T04:56:46.404Z,91.00
2019-03-20T04:59:51.379Z,91.10
2019-03-20T05:02:56.429Z,91.10
2019-03-20T05:06:01.472Z,91.00
2019-03-20T05:09:07.411Z,91.00
2019-03-20T05:12:12.393Z,90.80
2019-03-20T05:15:17.630Z,90.80
2019-03-20T05:18:22.601Z,90.80
2019-03-20T05:21:27.721Z,90.90
2019-03-20T05:24:32.708Z,91.00
2019-03-20T05:27:38.031Z,90.90
2019-03-20T05:30:43.252Z,90.80
2019-03-20T05:33:48.441Z,91.00
2019-03-20T05:36:53.610Z,91.10
2019-03-20T05:39:58.806Z,91.10
2019-03-20T05:43:03.923Z,91.20
2019-03-20T05:46:09.044Z,91.20
2019-03-20T05:49:14.328Z,91.30
2019-03-20T05:52:19.685Z,91.70
2019-03-20T05:55:25.131Z,91.60
2019-03-20T05:58:30.231Z,91.70
2019-03-20T06:01:35.821Z,91.80
2019-03-20T06:04:41.237Z,91.90
2019-03-20T06:07:46.361Z,91.80
2019-03-20T06:10:51.341Z,91.80
2019-03-20T06:13:56.401Z,91.80
2019-03-20T06:17:01.520Z,91.90
2019-03-20T06:20:06.847Z,91.80
2019-03-20T06:23:11.880Z,92.00
2019-03-20T06:26:17.015Z,92.00
2019-03-20T06:29:22.377Z,92.00
2019-03-20T06:32:27.906Z,92.10
2019-03-20T06:35:32.975Z,92.10
2019-03-20T06:38:38.022Z,92.10
2019-03-20T06:41:43.346Z,92.10
2019-03-20T06:44:48.892Z,92.10
2019-03-20T06:47:54.103Z,92.10
2019-03-20T06:50:59.548Z,92.10
2019-03-20T06:54:07.251Z,92.10
2019-03-20T06:57:12.457Z,92.00
2019-03-20T07:00:45.767Z,91.90
2019-03-20T07:04:19.793Z,91.80
2019-03-20T07:07:43.191Z,91.80
2019-03-20T07:11:11.171Z,91.70
2019-03-20T07:14:16.168Z,91.70
2019-03-20T07:17:21.316Z,91.70
2019-03-20T07:20:26.437Z,91.70
2019-03-20T07:23:31.556Z,91.60
2019-03-20T07:26:36.676Z,91.30
2019-03-20T07:29:41.732Z,91.00
2019-03-20T07:32:46.782Z,90.80
2019-03-20T07:35:51.944Z,90.80
2019-03-20T07:38:58.081Z,91.10
2019-03-20T07:42:03.157Z,90.40
2019-03-20T07:45:08.804Z,90.00
2019-03-20T07:48:21.988Z,90.00
2019-03-20T07:51:20.696Z,89.80
2019-03-20T07:54:25.750Z,89.00
2019-03-20T07:57:30.703Z,87.80
2019-03-20T08:00:35.836Z,87.30
2019-03-20T08:03:40.945Z,87.00
2019-03-20T08:06:46.125Z,86.80
2019-03-20T08:09:51.265Z,86.30
2019-03-20T08:12:56.488Z,85.10
2019-03-20T08:16:03.927Z,84.90
2019-03-20T08:19:08.356Z,84.60
2019-03-20T08:22:13.458Z,84.00
2019-03-20T08:25:18.594Z,82.90
2019-03-20T08:28:23.671Z,82.40
2019-03-20T08:31:28.785Z,81.40
2019-03-20T08:34:33.747Z,80.00
2019-03-20T08:37:38.782Z,79.20
2019-03-20T08:40:43.824Z,77.70
2019-03-20T08:43:48.866Z,77.50
2019-03-20T08:46:54.025Z,76.40
2019-03-20T08:49:59.040Z,75.30
2019-03-20T08:53:04.142Z,74.00
2019-03-20T08:56:09.320Z,73.30
2019-03-20T08:59:14.356Z,72.50
2019-03-20T09:02:19.444Z,72.40
2019-03-20T09:05:24.480Z,71.90
2019-03-20T09:08:30.023Z,71.50
2019-03-20T09:11:35.169Z,70.50
2019-03-20T09:14:40.187Z,69.60
2019-03-20T09:17:45.316Z,68.70
2019-03-20T09:20:50.440Z,68.70
2019-03-20T09:23:55.512Z,68.40
2019-03-20T09:27:00.561Z,67.90
2019-03-20T09:30:07.195Z,67.20
2019-03-20T09:33:12.235Z,66.60
2019-03-20T09:36:17.279Z,65.30
2019-03-20T09:39:22.404Z,65.00
2019-03-20T09:42:27.432Z,64.50
2019-03-20T09:45:34.084Z,62.60
2019-03-20T09:48:39.131Z,62.20
2019-03-20T09:51:44.162Z,61.70
2019-03-20T09:54:49.197Z,62.10
2019-03-20T09:57:54.311Z,61.10
2019-03-20T10:00:59.340Z,60.00
2019-03-20T10:04:04.828Z,57.90
2019-03-20T10:07:09.936Z,54.60
2019-03-20T10:10:17.317Z,53.60
2019-03-20T10:13:22.352Z,53.90
2019-03-20T10:16:27.388Z,53.20
2019-03-20T10:19:32.440Z,52.30
2019-03-20T10:22:39.022Z,52.00
2019-03-20T10:25:45.047Z,52.40
2019-03-20T10:28:50.330Z,51.70
2019-03-20T10:31:55.360Z,51.20
2019-03-20T10:35:00.366Z,51.90
2019-03-20T10:38:05.519Z,51.50
2019-03-20T10:41:10.561Z,51.60
2019-03-20T10:44:15.589Z,51.40
2019-03-20T10:47:20.683Z,50.40
2019-03-20T10:50:25.926Z,51.40
2019-03-20T10:53:31.075Z,50.70
2019-03-20T10:56:36.124Z,49.40
2019-03-20T10:59:41.223Z,49.00
2019-03-20T11:02:46.379Z,49.70
2019-03-20T11:05:51.406Z,49.70
2019-03-20T11:08:56.467Z,48.90
2019-03-20T11:12:01.673Z,48.40
2019-03-20T11:15:08.648Z,47.70
2019-03-20T11:18:13.688Z,48.10
2019-03-20T11:21:18.664Z,47.70
2019-03-20T11:24:23.685Z,46.00
2019-03-20T11:27:28.792Z,45.20
2019-03-20T11:30:33.929Z,45.90
2019-03-20T11:33:39.046Z,45.10
2019-03-20T11:36:44.154Z,45.10
2019-03-20T11:39:49.191Z,44.70
2019-03-20T11:42:54.296Z,44.60
2019-03-20T11:45:59.269Z,44.60
2019-03-20T11:49:04.377Z,44.10
2019-03-20T11:52:09.480Z,44.20
2019-03-20T11:55:14.592Z,43.80
2019-03-20T11:58:19.629Z,43.70
2019-03-20T12:01:24.771Z,43.70
2019-03-20T12:04:29.794Z,43.40
2019-03-20T12:07:34.780Z,42.80
2019-03-20T12:10:39.879Z,42.80
2019-03-20T12:13:44.932Z,42.40
2019-03-20T12:16:50.044Z,42.60
2019-03-20T12:19:55.000Z,43.20
2019-03-20T12:23:00.117Z,42.20
2019-03-20T12:26:05.607Z,42.20
2019-03-20T12:29:10.712Z,42.60
2019-03-20T12:32:15.757Z,41.60
2019-03-20T12:35:20.917Z,42.10
2019-03-20T12:38:25.965Z,42.20
2019-03-20T12:41:30.983Z,42.30
2019-03-20T12:44:36.108Z,42.00
2019-03-20T12:47:41.226Z,41.70
2019-03-20T12:50:46.264Z,41.40
2019-03-20T12:53:51.380Z,40.50
2019-03-20T12:56:56.494Z,40.60
2019-03-20T13:00:01.513Z,40.70
2019-03-20T13:03:06.661Z,40.60
2019-03-20T13:06:11.792Z,41.10
2019-03-20T13:09:17.193Z,40.50
2019-03-20T13:12:22.328Z,40.70
2019-03-20T13:15:27.495Z,41.20
2019-03-20T13:18:32.600Z,40.70
2019-03-20T13:21:37.651Z,40.70
2019-03-20T13:24:42.684Z,40.70
2019-03-20T13:27:48.065Z,41.30
2019-03-20T13:30:56.261Z,40.60
2019-03-20T13:34:01.382Z,40.20
2019-03-20T13:37:06.483Z,40.70
2019-03-20T13:40:14.588Z,40.90
2019-03-20T13:43:18.503Z,40.80
2019-03-20T13:46:23.464Z,40.60
2019-03-20T13:49:28.496Z,40.10
2019-03-20T13:52:33.611Z,39.90
2019-03-20T13:55:38.728Z,40.00
2019-03-20T13:58:44.703Z,40.30
2019-03-20T14:01:49.845Z,40.70
2019-03-20T14:04:54.876Z,40.80
2019-03-20T14:07:59.978Z,40.00
2019-03-20T14:11:05.088Z,40.40
2019-03-20T14:14:10.204Z,40.80
2019-03-20T14:17:15.178Z,40.30
2019-03-20T14:20:22.136Z,40.40
2019-03-20T14:23:27.089Z,39.30
2019-03-20T14:26:32.153Z,39.10
2019-03-20T14:29:37.103Z,39.60
2019-03-20T14:32:42.157Z,39.70
2019-03-20T14:35:47.185Z,39.70
2019-03-20T14:38:52.263Z,40.10
2019-03-20T14:41:57.324Z,40.30
2019-03-20T14:45:02.433Z,40.10
2019-03-20T14:48:07.408Z,40.00
2019-03-20T14:51:12.446Z,39.80
2019-03-20T14:54:17.560Z,40.00
2019-03-20T14:57:22.526Z,40.00
2019-03-20T15:00:27.742Z,38.90
2019-03-20T15:03:32.786Z,39.80
2019-03-20T15:06:37.804Z,39.20
2019-03-20T15:09:43.649Z,39.40
2019-03-20T15:12:48.743Z,39.10
2019-03-20T15:15:57.734Z,39.50
2019-03-20T15:19:02.703Z,39.70
2019-03-20T15:22:07.746Z,39.80
2019-03-20T15:25:12.853Z,39.90
2019-03-20T15:28:17.967Z,40.00
2019-03-20T15:31:22.983Z,40.10
2019-03-20T15:34:27.962Z,39.70
2019-03-20T15:37:32.927Z,39.50
2019-03-20T15:40:38.360Z,39.70
2019-03-20T15:43:43.496Z,39.80
2019-03-20T15:46:48.627Z,40.20
2019-03-20T15:49:53.673Z,40.40
2019-03-20T15:52:58.712Z,40.90
2019-03-20T15:56:03.823Z,41.40
2019-03-20T15:59:08.869Z,41.80
2019-03-20T16:02:13.920Z,42.50
2019-03-20T16:05:19.128Z,42.60
2019-03-20T16:08:24.244Z,41.80
2019-03-20T16:11:29.276Z,42.30
2019-03-20T16:14:34.349Z,42.50
2019-03-20T16:17:39.828Z,43.40
2019-03-20T16:20:44.857Z,42.90
2019-03-20T16:23:49.832Z,43.00
2019-03-20T16:26:55.463Z,43.30
2019-03-20T16:30:00.788Z,43.10
2019-03-20T16:33:05.965Z,43.60
2019-03-20T16:36:11.033Z,43.50
2019-03-20T16:39:16.153Z,43.60
2019-03-20T16:42:21.281Z,44.10
2019-03-20T16:45:28.113Z,44.90
2019-03-20T16:48:33.223Z,45.00
2019-03-20T16:51:38.348Z,45.80
2019-03-20T16:54:43.316Z,47.00
2019-03-20T16:57:48.435Z,45.90
2019-03-20T17:00:53.463Z,46.00
2019-03-20T17:03:58.436Z,46.20
2019-03-20T17:07:03.541Z,46.20
2019-03-20T17:10:12.547Z,46.70
2019-03-20T17:13:17.669Z,46.70
2019-03-20T17:16:22.768Z,47.50
2019-03-20T17:19:27.913Z,47.80
2019-03-20T17:22:41.774Z,48.50
2019-03-20T17:25:41.968Z,48.50
2019-03-20T17:28:47.000Z,49.00
2019-03-20T17:31:52.067Z,49.20
2019-03-20T17:34:57.189Z,49.50
2019-03-20T17:38:02.295Z,49.90
2019-03-20T17:41:07.809Z,49.90
2019-03-20T17:44:13.008Z,50.00
2019-03-20T17:47:18.159Z,50.30
2019-03-20T17:50:25.096Z,50.70
2019-03-20T17:53:30.149Z,51.00
2019-03-20T17:56:35.276Z,51.50
2019-03-20T17:59:40.427Z,52.20
2019-03-20T18:02:45.621Z,52.70
2019-03-20T18:05:50.732Z,52.90
2019-03-20T18:08:55.912Z,53.20
2019-03-20T18:12:00.951Z,53.40
2019-03-20T18:15:07.140Z,53.50
2019-03-20T18:18:12.294Z,53.80
2019-03-20T18:21:17.399Z,53.30
2019-03-20T18:24:22.447Z,53.20
2019-03-20T18:27:27.504Z,53.00
2019-03-20T18:30:32.624Z,53.20
2019-03-20T18:33:37.739Z,53.60
2019-03-20T18:36:42.695Z,53.70
2019-03-20T18:39:47.887Z,53.90
2019-03-20T18:42:53.185Z,54.10
2019-03-20T18:45:58.332Z,54.30
2019-03-20T18:49:03.373Z,54.60
2019-03-20T18:52:08.423Z,54.80
2019-03-20T18:55:13.662Z,55.30
2019-03-20T18:58:18.870Z,55.60
2019-03-20T19:01:23.994Z,56.10
2019-03-20T19:04:29.128Z,56.40
2019-03-20T19:07:34.200Z,56.60
2019-03-20T19:10:39.452Z,56.90
2019-03-20T19:13:44.677Z,57.00
2019-03-20T19:16:49.917Z,57.30
2019-03-20T19:19:54.960Z,58.20
2019-03-20T19:23:00.024Z,58.00
2019-03-20T19:26:05.328Z,58.40
2019-03-20T19:29:10.522Z,58.70
2019-03-20T19:32:15.604Z,58.90
2019-03-20T19:35:20.720Z,59.10
2019-03-20T19:38:34.490Z,59.90
2019-03-20T19:41:32.544Z,59.40
2019-03-20T19:44:37.657Z,59.40
2019-03-20T19:47:42.784Z,59.60
2019-03-20T19:50:47.833Z,59.90
2019-03-20T19:53:52.967Z,60.00
2019-03-20T19:56:58.088Z,60.40
2019-03-20T20:00:03.317Z,60.50
2019-03-20T20:03:08.447Z,60.20
2019-03-20T20:06:13.490Z,60.00
2019-03-20T20:09:18.735Z,60.20
2019-03-20T20:12:31.142Z,60.70
2019-03-20T20:15:30.848Z,61.10
2019-03-20T20:18:36.004Z,61.80
2019-03-20T20:25:51.943Z,63.50
2019-03-20T20:28:56.982Z,63.60
2019-03-20T20:32:02.119Z,64.40
2019-03-20T20:35:08.502Z,65.90
2019-03-20T20:38:14.391Z,67.80
2019-03-20T20:41:19.627Z,67.30
2019-03-20T20:44:24.916Z,68.10
2019-03-20T20:47:30.353Z,67.90
2019-03-20T20:50:35.857Z,67.90
2019-03-20T20:53:41.087Z,67.80
2019-03-20T20:56:46.052Z,67.60
2019-03-20T20:59:51.276Z,68.50
2019-03-20T21:02:56.508Z,69.90
2019-03-20T21:06:01.540Z,69.60
2019-03-20T21:09:08.162Z,69.90
2019-03-20T21:12:13.272Z,70.30
2019-03-20T21:15:36.286Z,70.80
2019-03-20T21:19:17.999Z,71.30
2019-03-20T21:23:10.225Z,71.30
2019-03-20T21:26:16.523Z,71.20
2019-03-20T21:29:54.511Z,71.00
2019-03-20T21:33:00.831Z,71.10
2019-03-20T21:37:14.878Z,71.20
2019-03-20T21:40:22.064Z,71.40
2019-03-20T21:44:14.049Z,71.60
2019-03-20T21:47:32.573Z,72.00
2019-03-20T21:51:21.841Z,72.20
2019-03-20T21:54:53.329Z,72.70
2019-03-20T21:58:16.845Z,73.30
2019-03-20T22:01:57.992Z,73.20
2019-03-20T22:05:03.761Z,74.10
2019-03-20T22:08:09.472Z,74.60
2019-03-20T22:11:50.823Z,74.80
2019-03-20T22:15:01.827Z,75.10
2019-03-20T22:18:33.988Z,75.00
2019-03-20T22:22:18.839Z,75.60
2019-03-20T22:25:58.407Z,76.00
2019-03-20T22:29:22.059Z,76.30
2019-03-20T22:33:10.509Z,77.10
2019-03-20T22:36:20.095Z,77.20
2019-03-20T22:40:11.456Z,77.10
2019-03-20T22:43:31.111Z,77.00
2019-03-20T22:47:12.240Z,77.10
2019-03-20T22:50:28.995Z,77.00
2019-03-20T22:54:24.135Z,76.80
2019-03-20T22:57:41.984Z,76.80
2019-03-20T23:00:49.000Z,77.20
2019-03-20T23:04:02.243Z,77.60
2019-03-20T23:07:07.760Z,78.50
2019-03-20T23:10:14.296Z,78.20
2019-03-20T23:13:19.877Z,78.50
2019-03-20T23:16:25.414Z,78.80
2019-03-20T23:19:31.038Z,79.20
2019-03-20T23:22:36.547Z,79.10
2019-03-20T23:25:42.359Z,78.90
2019-03-20T23:28:48.010Z,78.80
2019-03-20T23:31:53.667Z,78.70
2019-03-20T23:34:59.404Z,78.70
2019-03-20T23:38:05.038Z,79.00
2019-03-20T23:41:12.912Z,79.00
2019-03-20T23:44:18.411Z,79.40
2019-03-20T23:47:33.387Z,79.50
2019-03-20T23:50:39.135Z,79.70
2019-03-20T23:53:47.761Z,79.60
2019-03-20T23:56:53.422Z,79.60
